Time;durP1;ratioP1;P1;durP2;ratioP2;P2;SDS_P1;SDS_P2;PMS_P1;PMS_P2;Temp;Humidity;BMP_temperature;BMP_pressure;BME280_temperature;BME280_humidity;BME280_pressure;Samples;Min_cycle;Max_cycle;Signal;HPM_P1;HPM_P2
2023/08/16 00:01:13;;;;;;;3.00;2.70;;;22.00;86.50;;;;;;4974563;28;20464;-83
2023/08/16 00:03:41;;;;;;;1.00;1.00;;;22.10;86.20;;;;;;4965792;28;20445;-83
2023/08/16 00:06:10;;;;;;;1.53;1.43;;;22.10;86.60;;;;;;4967519;28;20449;-80
2023/08/16 00:08:38;;;;;;;1.87;1.77;;;22.10;86.30;;;;;;4970270;28;20484;-82
2023/08/16 00:11:06;;;;;;;1.77;1.67;;;22.10;86.40;;;;;;4960492;28;20449;-82
2023/08/16 00:13:34;;;;;;;1.27;1.07;;;22.00;86.90;;;;;;4960788;28;20480;-82
2023/08/16 00:16:02;;;;;;;0.73;0.73;;;21.80;87.70;;;;;;4960857;28;20521;-82
2023/08/16 00:18:29;;;;;;;1.63;1.53;;;21.70;88.00;;;;;;4968585;28;20445;-85
2023/08/16 00:20:59;;;;;;;2.10;2.00;;;21.80;87.90;;;;;;4961481;28;20457;-81
2023/08/16 00:23:26;;;;;;;1.70;1.60;;;21.90;88.20;;;;;;4961442;28;20495;-78
2023/08/16 00:25:53;;;;;;;2.87;2.70;;;21.70;88.00;;;;;;4957615;28;20454;-84
2023/08/16 00:28:20;;;;;;;6.63;3.10;;;21.70;88.30;;;;;;4961256;28;20490;-81
2023/08/16 00:30:54;;;;;;;1.73;1.63;;;21.70;88.70;;;;;;4962992;28;20701;-83
2023/08/16 00:33:21;;;;;;;2.03;1.90;;;21.60;89.40;;;;;;4960734;28;20632;-82
2023/08/16 00:35:52;;;;;;;1.57;1.47;;;21.50;89.70;;;;;;4961549;28;20785;-83
2023/08/16 00:38:19;;;;;;;1.50;1.40;;;21.40;90.00;;;;;;4965171;28;20559;-82
2023/08/16 00:40:48;;;;;;;3.43;2.13;;;21.40;90.10;;;;;;4965396;28;20460;-83
2023/08/16 00:43:15;;;;;;;0.97;0.97;;;21.30;90.20;;;;;;4961394;28;20487;-82
2023/08/16 00:45:44;;;;;;;1.37;1.30;;;21.30;90.80;;;;;;4967587;28;20484;-81
2023/08/16 00:48:13;;;;;;;1.77;1.00;;;21.30;90.60;;;;;;4963963;28;20463;-82
2023/08/16 00:50:40;;;;;;;1.73;1.63;;;21.10;90.70;;;;;;4959407;28;20905;-81
2023/08/16 00:53:08;;;;;;;1.27;1.23;;;21.00;90.90;;;;;;4954672;28;20500;-81
2023/08/16 00:55:36;;;;;;;2.10;2.00;;;21.10;91.10;;;;;;4959190;28;20457;-82
2023/08/16 00:58:03;;;;;;;3.23;3.03;;;20.90;91.20;;;;;;4954021;29;20432;-83
2023/08/16 01:00:30;;;;;;;3.47;1.27;;;21.00;91.20;;;;;;4964516;28;20686;-83
2023/08/16 01:02:58;;;;;;;1.50;1.40;;;21.00;91.40;;;;;;4966151;28;20451;-82
2023/08/16 01:05:25;;;;;;;1.20;1.20;;;21.00;91.40;;;;;;4964652;28;20416;-82
2023/08/16 01:07:53;;;;;;;1.20;1.20;;;20.90;91.60;;;;;;4960491;28;20412;-82
2023/08/16 01:10:32;;;;;;;1.47;1.37;;;20.90;91.50;;;;;;4960374;29;20461;-82
2023/08/16 01:13:12;;;;;;;3.17;2.87;;;20.80;91.60;;;;;;4959187;28;20429;-83
2023/08/16 01:15:46;;;;;;;0.70;0.70;;;20.80;91.60;;;;;;4962324;28;20468;-81
2023/08/16 01:18:14;;;;;;;1.53;1.20;;;20.80;91.90;;;;;;4960557;28;20482;-82
2023/08/16 01:20:44;;;;;;;1.33;1.27;;;20.70;92.20;;;;;;4971038;28;20507;-81
2023/08/16 01:23:37;;;;;;;3.67;3.40;;;20.70;92.30;;;;;;4972828;28;20453;-81
2023/08/16 01:26:16;;;;;;;1.47;1.37;;;20.70;92.30;;;;;;4953772;29;20498;-82
2023/08/16 01:28:46;;;;;;;2.03;1.90;;;20.60;92.70;;;;;;4960794;28;20487;-82
2023/08/16 01:31:14;;;;;;;5.33;2.90;;;20.70;92.30;;;;;;4963994;28;20733;-82
2023/08/16 01:33:40;;;;;;;2.00;1.90;;;20.60;92.50;;;;;;4953238;28;20428;-81
2023/08/16 01:36:08;;;;;;;0.90;0.90;;;20.60;92.50;;;;;;4962162;28;20472;-81
2023/08/16 01:38:35;;;;;;;0.70;0.70;;;20.60;92.60;;;;;;4964062;28;20495;-83
2023/08/16 01:41:10;;;;;;;1.10;1.10;;;20.50;92.60;;;;;;4961364;28;20830;-82
2023/08/16 01:43:39;;;;;;;1.17;1.17;;;20.50;92.70;;;;;;4964436;28;20504;-82
2023/08/16 01:46:09;;;;;;;0.80;0.80;;;20.60;92.50;;;;;;4960693;28;20524;-83
2023/08/16 01:48:38;;;;;;;2.73;2.37;;;20.50;92.40;;;;;;4959662;28;20485;-84
2023/08/16 01:51:06;;;;;;;3.60;3.33;;;20.60;92.70;;;;;;4959191;28;20661;-81
2023/08/16 01:53:34;;;;;;;1.97;1.90;;;20.40;92.90;;;;;;4961481;28;20776;-81
2023/08/16 01:56:01;;;;;;;1.37;1.33;;;20.40;93.00;;;;;;4966414;28;20504;-82
2023/08/16 01:58:28;;;;;;;0.80;0.80;;;20.30;93.20;;;;;;4967097;28;20619;-83
2023/08/16 02:00:55;;;;;;;5.03;2.60;;;20.30;93.00;;;;;;4971576;28;20508;-84
2023/08/16 02:03:22;;;;;;;1.70;1.50;;;20.30;93.10;;;;;;4975387;28;20922;-84
2023/08/16 02:05:50;;;;;;;1.13;1.03;;;20.30;93.20;;;;;;4974013;28;20494;-84
2023/08/16 02:08:16;;;;;;;0.87;0.87;;;20.30;93.40;;;;;;4973906;28;20504;-82
2023/08/16 02:10:44;;;;;;;2.23;2.03;;;20.20;93.70;;;;;;4965056;28;20798;-82
2023/08/16 02:13:11;;;;;;;1.77;1.67;;;20.10;93.90;;;;;;4964186;28;20418;-82
2023/08/16 02:15:38;;;;;;;1.27;1.27;;;20.10;94.20;;;;;;4962760;28;20556;-83
2023/08/16 02:18:10;;;;;;;1.77;1.67;;;20.00;94.30;;;;;;4963469;28;20448;-83
2023/08/16 02:20:41;;;;;;;1.43;1.33;;;19.90;94.40;;;;;;4968262;28;20415;-81
2023/08/16 02:23:08;;;;;;;1.57;1.47;;;19.90;95.10;;;;;;4952847;29;20775;-83
2023/08/16 02:25:35;;;;;;;1.70;1.60;;;20.00;94.70;;;;;;4966644;28;20471;-81
2023/08/16 02:28:02;;;;;;;1.30;1.23;;;20.00;94.50;;;;;;4958713;28;20474;-82
2023/08/16 02:30:29;;;;;;;3.67;2.20;;;20.00;94.40;;;;;;4961184;28;20419;-82
2023/08/16 02:32:57;;;;;;;2.20;2.10;;;20.10;94.60;;;;;;4960028;28;20469;-80
2023/08/16 02:35:24;;;;;;;1.10;1.10;;;19.90;94.80;;;;;;4958832;29;20508;-82
2023/08/16 02:37:51;;;;;;;1.20;1.20;;;19.80;95.00;;;;;;4959021;28;20473;-82
2023/08/16 02:40:18;;;;;;;1.83;1.67;;;19.80;95.10;;;;;;4959358;28;20518;-84
2023/08/16 02:42:49;;;;;;;1.13;1.03;;;19.80;95.20;;;;;;4958379;29;20416;-83
2023/08/16 02:45:16;;;;;;;1.70;1.60;;;19.80;95.30;;;;;;4967491;28;20643;-81
2023/08/16 02:47:44;;;;;;;1.73;1.63;;;19.70;95.50;;;;;;4953380;29;20652;-81
2023/08/16 02:50:11;;;;;;;1.40;1.30;;;19.70;95.50;;;;;;4958668;28;20512;-83
2023/08/16 02:52:39;;;;;;;3.97;2.27;;;19.70;95.40;;;;;;4954898;28;20863;-81
2023/08/16 02:55:07;;;;;;;1.80;1.70;;;19.70;95.60;;;;;;4949811;28;20484;-80
2023/08/16 02:57:33;;;;;;;1.60;1.50;;;19.60;95.70;;;;;;4953230;28;20447;-81
2023/08/16 03:00:03;;;;;;;1.20;1.20;;;19.60;95.80;;;;;;4958496;28;20472;-82
2023/08/16 03:02:32;;;;;;;1.10;1.10;;;19.80;95.40;;;;;;4954413;28;20525;-81
2023/08/16 03:04:59;;;;;;;1.20;1.20;;;19.90;95.10;;;;;;4957946;28;20427;-82
2023/08/16 03:07:26;;;;;;;1.27;1.20;;;19.90;95.10;;;;;;4963378;28;20454;-82
2023/08/16 03:09:53;;;;;;;1.10;1.10;;;19.80;95.00;;;;;;4957435;28;20523;-82
2023/08/16 03:12:20;;;;;;;2.77;2.57;;;19.90;94.90;;;;;;4962151;28;20559;-82
2023/08/16 03:14:47;;;;;;;1.60;1.50;;;19.90;94.90;;;;;;4958345;28;20423;-81
2023/08/16 03:17:14;;;;;;;1.13;1.13;;;19.90;94.90;;;;;;4961412;28;20524;-81
2023/08/16 03:19:41;;;;;;;1.60;1.50;;;19.80;95.40;;;;;;4953310;28;20505;-82
2023/08/16 03:22:08;;;;;;;1.27;1.27;;;19.70;95.40;;;;;;4958312;28;20516;-81
2023/08/16 03:24:35;;;;;;;1.33;1.30;;;19.70;95.40;;;;;;4953960;28;20771;-81
2023/08/16 03:27:02;;;;;;;2.03;1.93;;;19.70;95.40;;;;;;4965049;28;20445;-81
2023/08/16 03:29:29;;;;;;;2.07;1.97;;;19.70;95.60;;;;;;4957928;28;20540;-83
2023/08/16 03:31:56;;;;;;;1.77;1.67;;;19.60;95.70;;;;;;4957612;29;20490;-80
2023/08/16 03:34:24;;;;;;;1.73;1.63;;;19.60;95.80;;;;;;4957571;28;20449;-83
2023/08/16 03:36:51;;;;;;;1.50;1.43;;;19.60;95.60;;;;;;4962126;28;20854;-82
2023/08/16 03:39:19;;;;;;;2.10;2.00;;;19.50;95.70;;;;;;4964950;28;20562;-84
2023/08/16 03:41:46;;;;;;;1.30;1.30;;;19.60;95.70;;;;;;4953667;28;20457;-81
2023/08/16 03:44:13;;;;;;;2.20;1.63;;;19.60;95.80;;;;;;4965897;28;20451;-80
2023/08/16 03:46:40;;;;;;;1.20;1.10;;;19.50;95.90;;;;;;4957360;28;20431;-80
2023/08/16 03:49:07;;;;;;;1.93;1.83;;;19.40;95.90;;;;;;4958142;28;20515;-81
2023/08/16 03:51:35;;;;;;;1.10;1.10;;;19.40;96.10;;;;;;4958100;28;20452;-81
2023/08/16 03:54:03;;;;;;;1.60;1.50;;;19.40;96.10;;;;;;4959692;28;20550;-83
2023/08/16 03:56:30;;;;;;;2.17;2.07;;;19.40;96.20;;;;;;4958791;28;20516;-80
2023/08/16 03:58:57;;;;;;;1.80;1.73;;;19.40;96.40;;;;;;4962249;28;20472;-82
2023/08/16 04:01:24;;;;;;;2.10;2.00;;;19.60;95.90;;;;;;4957110;28;20474;-82
2023/08/16 04:03:51;;;;;;;1.90;1.80;;;19.50;96.20;;;;;;4967070;28;20468;-81
2023/08/16 04:06:20;;;;;;;2.17;2.07;;;19.50;96.50;;;;;;4971944;28;20532;-82
2023/08/16 04:08:47;;;;;;;1.37;1.37;;;19.40;96.50;;;;;;4969720;28;20540;-81
2023/08/16 04:11:15;;;;;;;1.50;1.40;;;19.40;96.50;;;;;;4964699;28;20688;-81
2023/08/16 04:13:42;;;;;;;1.63;1.53;;;19.40;96.40;;;;;;4966450;28;20751;-81
2023/08/16 04:16:12;;;;;;;1.83;1.73;;;19.40;96.30;;;;;;4960158;28;20431;-81
2023/08/16 04:18:38;;;;;;;2.00;1.90;;;19.50;96.20;;;;;;4961407;28;20456;-83
2023/08/16 04:21:06;;;;;;;1.67;1.60;;;19.50;96.10;;;;;;4961225;29;20484;-81
2023/08/16 04:23:32;;;;;;;1.23;1.23;;;19.50;96.20;;;;;;4961339;29;20434;-82
2023/08/16 04:26:01;;;;;;;1.63;1.53;;;19.60;96.30;;;;;;4954135;28;20454;-82
2023/08/16 04:28:28;;;;;;;1.90;1.80;;;19.60;96.20;;;;;;4962983;28;20449;-82
2023/08/16 04:30:55;;;;;;;2.23;2.13;;;19.70;96.10;;;;;;4956312;28;20489;-81
2023/08/16 04:33:22;;;;;;;1.40;1.40;;;19.90;96.20;;;;;;4959834;29;20817;-81
2023/08/16 04:35:52;;;;;;;1.20;1.17;;;19.80;95.60;;;;;;4956273;28;20425;-81
2023/08/16 04:38:19;;;;;;;1.80;1.70;;;20.10;95.50;;;;;;4963123;28;20452;-80
2023/08/16 04:40:50;;;;;;;1.10;1.10;;;20.10;95.20;;;;;;4966546;28;20456;-81
2023/08/16 04:43:18;;;;;;;2.73;2.50;;;20.30;95.20;;;;;;4963517;28;20527;-82
2023/08/16 04:45:46;;;;;;;1.53;1.43;;;20.40;95.20;;;;;;4961962;28;20532;-83
2023/08/16 04:48:13;;;;;;;1.40;1.30;;;20.50;94.90;;;;;;4962181;28;20445;-81
2023/08/16 04:50:40;;;;;;;1.80;1.70;;;20.60;94.50;;;;;;4957947;28;20547;-82
2023/08/16 04:53:07;;;;;;;2.40;2.30;;;20.80;94.30;;;;;;4962485;28;20457;-82
2023/08/16 04:55:34;;;;;;;3.00;1.93;;;20.90;94.20;;;;;;4960373;29;20448;-82
2023/08/16 04:58:01;;;;;;;1.43;1.33;;;21.00;93.60;;;;;;4953876;29;20599;-82
2023/08/16 05:00:28;;;;;;;1.13;1.13;;;21.10;93.90;;;;;;4962438;28;20496;-83
2023/08/16 05:02:55;;;;;;;3.67;3.40;;;21.30;93.50;;;;;;4959689;28;20523;-82
2023/08/16 05:05:22;;;;;;;1.07;1.07;;;21.40;93.60;;;;;;4962522;28;20765;-83
2023/08/16 05:07:49;;;;;;;2.07;1.93;;;21.60;93.40;;;;;;4962880;28;20476;-82
2023/08/16 05:10:18;;;;;;;1.03;1.03;;;21.70;93.50;;;;;;4963017;28;20839;-86
2023/08/16 05:12:44;;;;;;;1.47;1.37;;;21.90;92.90;;;;;;4963013;28;20449;-84
2023/08/16 05:15:12;;;;;;;2.00;1.90;;;22.10;93.10;;;;;;4963006;28;20528;-82
2023/08/16 05:17:39;;;;;;;2.43;2.23;;;22.40;92.20;;;;;;4960521;28;20494;-86
2023/08/16 05:20:07;;;;;;;2.77;2.60;;;22.70;91.80;;;;;;4960304;28;20524;-84
2023/08/16 05:22:34;;;;;;;3.13;2.93;;;22.80;91.80;;;;;;4960325;28;20814;-82
2023/08/16 05:25:02;;;;;;;2.13;2.03;;;22.90;91.90;;;;;;4962076;28;20452;-84
2023/08/16 05:27:29;;;;;;;3.73;3.33;;;23.00;91.60;;;;;;4966318;28;20529;-86
2023/08/16 05:29:56;;;;;;;3.00;2.80;;;23.20;91.20;;;;;;4969428;28;20690;-83
2023/08/16 05:32:24;;;;;;;2.30;2.20;;;23.30;90.70;;;;;;4963359;28;20444;-83
2023/08/16 05:34:53;;;;;;;2.30;2.20;;;23.40;90.50;;;;;;4964057;28;20427;-83
2023/08/16 05:37:20;;;;;;;2.63;2.47;;;23.60;90.20;;;;;;4972599;28;20450;-83
2023/08/16 05:39:49;;;;;;;4.07;3.80;;;23.60;90.10;;;;;;4962744;29;20424;-83
2023/08/16 05:42:16;;;;;;;3.53;3.27;;;23.70;90.40;;;;;;4964525;28;20457;-82
2023/08/16 05:44:43;;;;;;;4.13;3.83;;;23.70;90.10;;;;;;4964497;28;20533;-82
2023/08/16 05:47:10;;;;;;;2.03;1.60;;;24.10;89.20;;;;;;4964532;28;20424;-83
2023/08/16 05:49:37;;;;;;;1.90;1.80;;;24.00;89.80;;;;;;4964831;28;20465;-81
2023/08/16 05:52:04;;;;;;;3.10;2.93;;;24.10;89.90;;;;;;4964410;29;20477;-84
2023/08/16 05:54:31;;;;;;;1.77;1.67;;;24.20;90.10;;;;;;4964257;29;20487;-82
2023/08/16 05:56:58;;;;;;;2.80;2.67;;;24.40;90.00;;;;;;4963051;28;21020;-84
2023/08/16 05:59:25;;;;;;;2.00;1.90;;;24.50;89.60;;;;;;4962609;28;20521;-84
2023/08/16 06:01:52;;;;;;;1.47;1.37;;;24.90;88.70;;;;;;4957947;28;20468;-82
2023/08/16 06:04:19;;;;;;;2.30;2.20;;;24.90;88.80;;;;;;4968578;28;20516;-85
2023/08/16 06:06:46;;;;;;;1.43;1.33;;;25.10;88.30;;;;;;4974937;28;20607;-85
2023/08/16 06:09:12;;;;;;;2.33;2.23;;;25.30;87.60;;;;;;4964181;28;20491;-85
2023/08/16 06:11:39;;;;;;;2.17;2.07;;;25.50;86.70;;;;;;4963196;28;20660;-85
2023/08/16 06:14:06;;;;;;;1.97;1.87;;;25.50;86.50;;;;;;4960868;28;20424;-85
2023/08/16 06:16:33;;;;;;;2.07;1.97;;;25.70;86.20;;;;;;4960900;28;20460;-86
2023/08/16 06:19:00;;;;;;;1.00;1.00;;;25.70;85.60;;;;;;4958560;28;20419;-87
2023/08/16 06:21:27;;;;;;;2.13;2.03;;;25.90;85.20;;;;;;4971015;28;20446;-85
2023/08/16 06:23:56;;;;;;;2.77;2.67;;;26.00;84.90;;;;;;4973250;29;20468;-82
2023/08/16 06:26:24;;;;;;;1.50;1.40;;;26.10;85.20;;;;;;4967621;28;20420;-82
2023/08/16 06:28:51;;;;;;;3.40;3.20;;;26.40;83.70;;;;;;4961590;29;20459;-81
2023/08/16 06:31:18;;;;;;;1.77;1.67;;;26.50;83.60;;;;;;4967618;28;20463;-82
2023/08/16 06:33:45;;;;;;;1.73;1.63;;;26.60;83.30;;;;;;4960981;28;20517;-84
2023/08/16 06:36:13;;;;;;;1.50;1.43;;;26.70;83.40;;;;;;4962595;28;20420;-86
2023/08/16 06:38:40;;;;;;;3.60;2.17;;;27.00;81.70;;;;;;4962384;28;20438;-87
2023/08/16 06:41:07;;;;;;;2.63;2.53;;;27.00;81.80;;;;;;4958645;29;20513;-88
2023/08/16 06:43:34;;;;;;;2.50;2.40;;;27.10;81.00;;;;;;4964057;28;20663;-85
2023/08/16 06:46:01;;;;;;;1.40;1.33;;;27.20;80.80;;;;;;4960906;28;20431;-82
2023/08/16 06:48:28;;;;;;;2.00;1.90;;;27.40;80.20;;;;;;4961368;28;20766;-87
2023/08/16 06:50:55;;;;;;;1.70;1.60;;;27.60;79.40;;;;;;4961036;28;20522;-83
2023/08/16 06:53:22;;;;;;;2.20;2.00;;;27.80;78.30;;;;;;4961272;28;20432;-83
2023/08/16 06:55:49;;;;;;;1.80;1.70;;;28.00;78.00;;;;;;4962926;28;20665;-84
2023/08/16 06:58:15;;;;;;;1.87;1.77;;;28.10;77.70;;;;;;4963332;28;20449;-88
2023/08/16 07:00:45;;;;;;;3.10;2.90;;;28.30;77.20;;;;;;4964280;28;20495;-88
2023/08/16 07:03:12;;;;;;;2.23;2.13;;;28.50;76.50;;;;;;4961057;28;20436;-84
2023/08/16 07:05:39;;;;;;;1.80;1.70;;;28.80;75.20;;;;;;4961204;28;20771;-83
2023/08/16 07:08:07;;;;;;;3.27;3.07;;;29.30;73.60;;;;;;4957759;28;20513;-83
2023/08/16 07:10:34;;;;;;;1.80;1.70;;;29.70;72.80;;;;;;4964558;28;20525;-86
2023/08/16 07:13:02;;;;;;;5.87;4.13;;;29.90;71.80;;;;;;4967002;28;20433;-86
2023/08/16 07:15:30;;;;;;;4.63;2.90;;;29.90;71.00;;;;;;4958181;28;20445;-90
2023/08/16 07:17:57;;;;;;;3.13;2.97;;;29.90;71.00;;;;;;4960601;28;20546;-86
2023/08/16 07:20:24;;;;;;;1.90;1.80;;;29.70;71.90;;;;;;4957142;28;20550;-84
2023/08/16 07:22:51;;;;;;;2.47;2.37;;;30.20;70.40;;;;;;4966620;28;20440;-85
2023/08/16 07:25:18;;;;;;;3.30;3.10;;;30.40;70.10;;;;;;4970926;28;20452;-84
2023/08/16 07:27:45;;;;;;;1.97;1.80;;;30.80;68.70;;;;;;4962520;28;20452;-86
2023/08/16 07:30:12;;;;;;;1.60;1.50;;;31.20;67.10;;;;;;4965284;28;20492;-83
2023/08/16 07:32:39;;;;;;;3.13;2.97;;;31.50;66.20;;;;;;4961595;28;20453;-85
2023/08/16 07:35:07;;;;;;;1.80;1.70;;;32.10;64.20;;;;;;4960918;28;20542;-86
2023/08/16 07:37:36;;;;;;;1.90;1.80;;;33.00;61.50;;;;;;4962131;28;20524;-83
2023/08/16 07:40:04;;;;;;;3.07;2.97;;;33.40;59.90;;;;;;4961085;28;20524;-88
2023/08/16 07:42:32;;;;;;;2.07;1.97;;;33.90;58.80;;;;;;4965089;28;20501;-83
2023/08/16 07:45:00;;;;;;;2.10;2.00;;;34.30;56.60;;;;;;4961404;28;20577;-87
2023/08/16 07:47:27;;;;;;;2.30;2.13;;;34.40;56.70;;;;;;4961702;29;20480;-86
2023/08/16 07:49:55;;;;;;;2.80;2.70;;;34.60;55.80;;;;;;4969790;28;20477;-85
2023/08/16 07:52:22;;;;;;;2.13;2.03;;;34.90;55.60;;;;;;4963756;28;20905;-85
2023/08/16 07:54:49;;;;;;;2.30;2.20;;;35.10;55.00;;;;;;4965647;28;20792;-85
2023/08/16 07:57:16;;;;;;;1.40;1.40;;;35.60;54.10;;;;;;4968122;28;20531;-82
2023/08/16 07:59:43;;;;;;;1.60;1.50;;;35.90;53.20;;;;;;4959757;28;20512;-82
2023/08/16 08:02:10;;;;;;;2.40;2.30;;;36.00;52.40;;;;;;4967072;28;20481;-86
2023/08/16 08:04:38;;;;;;;1.67;1.57;;;36.20;52.20;;;;;;4969890;28;20449;-81
2023/08/16 08:07:05;;;;;;;2.67;2.47;;;36.10;51.90;;;;;;4972369;28;20432;-86
2023/08/16 08:09:32;;;;;;;2.97;2.77;;;36.00;51.90;;;;;;5008651;23;20560;-84
2023/08/16 08:11:59;;;;;;;1.70;1.70;;;36.10;51.60;;;;;;4960770;29;20670;-81
2023/08/16 08:16:56;;;;;;;3.47;3.27;;;36.30;51.50;;;;;;4991010;23;20504;-84
2023/08/16 08:19:23;;;;;;;2.37;2.27;;;36.50;51.50;;;;;;5002471;23;20877;-84
2023/08/16 08:21:51;;;;;;;1.83;1.73;;;36.80;50.70;;;;;;4964718;29;20715;-87
2023/08/16 08:24:18;;;;;;;1.90;1.80;;;36.40;51.70;;;;;;4951115;29;20537;-87
2023/08/16 08:26:46;;;;;;;2.20;2.10;;;36.30;52.00;;;;;;5151181;23;20576;-82
2023/08/16 08:31:40;;;;;;;2.00;1.90;;;36.90;50.50;;;;;;4973494;28;20496;-84
2023/08/16 08:34:08;;;;;;;8.77;3.40;;;37.20;50.20;;;;;;4974728;28;20511;-83
2023/08/16 08:36:35;;;;;;;2.63;2.53;;;36.80;50.10;;;;;;4974191;28;20441;-86
2023/08/16 08:39:02;;;;;;;1.80;1.70;;;36.50;50.50;;;;;;4978390;28;20449;-84
2023/08/16 08:41:32;;;;;;;4.80;2.63;;;36.50;50.20;;;;;;4975692;28;20475;-87
2023/08/16 08:44:17;;;;;;;2.80;2.70;;;36.90;50.00;;;;;;4985333;28;20780;-83
2023/08/16 08:46:46;;;;;;;2.33;2.20;;;37.30;48.70;;;;;;4981201;28;20425;-80
2023/08/16 08:49:19;;;;;;;2.33;2.23;;;37.40;48.10;;;;;;4992210;28;20476;-84
2023/08/16 08:51:46;;;;;;;1.60;1.60;;;36.70;49.30;;;;;;4974043;28;20473;-82
2023/08/16 08:54:13;;;;;;;2.83;2.73;;;36.70;49.60;;;;;;4971749;28;21030;-84
2023/08/16 08:56:41;;;;;;;1.77;1.67;;;36.80;48.80;;;;;;4980812;28;20475;-86
2023/08/16 08:59:11;;;;;;;1.90;1.80;;;36.40;50.20;;;;;;4981533;28;20524;-87
2023/08/16 09:01:43;;;;;;;2.20;2.10;;;36.70;50.20;;;;;;4980299;28;20577;-88
2023/08/16 09:04:13;;;;;;;3.03;2.83;;;36.90;49.40;;;;;;4984196;28;20505;-83
2023/08/16 09:06:41;;;;;;;1.90;1.80;;;36.50;50.60;;;;;;4967191;28;20453;-87
2023/08/16 09:09:08;;;;;;;1.80;1.70;;;36.50;50.30;;;;;;4982712;28;20564;-81
2023/08/16 09:11:36;;;;;;;2.37;2.27;;;36.90;49.70;;;;;;4985897;28;20556;-86
2023/08/16 09:14:03;;;;;;;1.90;1.80;;;37.00;47.70;;;;;;4985933;28;20517;-87
2023/08/16 09:16:31;;;;;;;2.40;2.30;;;37.30;48.70;;;;;;4974022;28;20786;-83
2023/08/16 09:18:57;;;;;;;2.27;2.17;;;37.40;48.20;;;;;;4980479;28;20456;-86
2023/08/16 09:21:27;;;;;;;1.40;1.40;;;37.70;46.90;;;;;;4976702;28;20470;-84
2023/08/16 09:23:59;;;;;;;1.97;1.87;;;37.30;48.00;;;;;;4979202;28;20468;-84
2023/08/16 09:26:29;;;;;;;2.03;1.93;;;37.60;47.60;;;;;;4987215;28;20532;-84
2023/08/16 09:28:58;;;;;;;2.37;2.27;;;37.60;48.40;;;;;;4976671;28;20449;-85
2023/08/16 09:31:31;;;;;;;1.93;1.83;;;37.50;48.00;;;;;;4974919;28;20496;-82
2023/08/16 09:33:59;;;;;;;2.27;2.07;;;37.00;47.50;;;;;;4988500;28;20476;-81
2023/08/16 09:36:33;;;;;;;2.60;2.40;;;36.50;47.30;;;;;;4983265;28;20656;-84
2023/08/16 09:39:03;;;;;;;1.70;1.60;;;36.00;49.10;;;;;;4978586;28;20527;-82
2023/08/16 09:41:31;;;;;;;1.30;1.30;;;35.70;48.20;;;;;;4974536;28;20436;-84
2023/08/16 09:44:06;;;;;;;2.33;2.23;;;35.00;49.50;;;;;;4970175;28;20445;-86
2023/08/16 09:46:34;;;;;;;1.77;1.60;;;34.50;50.60;;;;;;4971318;28;20464;-81
2023/08/16 09:49:06;;;;;;;1.70;1.60;;;34.60;51.90;;;;;;4979248;28;20436;-88
2023/08/16 09:51:40;;;;;;;2.30;2.20;;;34.60;51.40;;;;;;4975034;28;20492;-86
2023/08/16 09:54:12;;;;;;;2.80;2.60;;;34.40;51.50;;;;;;4975347;28;20519;-84
2023/08/16 09:56:43;;;;;;;1.80;1.70;;;34.60;52.20;;;;;;4989060;28;20492;-83
2023/08/16 09:59:31;;;;;;;26.17;4.10;;;34.20;49.20;;;;;;4988520;28;20487;-81
2023/08/16 10:02:01;;;;;;;3.33;3.10;;;33.60;50.80;;;;;;5043107;23;20495;-84
2023/08/16 10:04:32;;;;;;;1.73;1.63;;;33.70;51.50;;;;;;4981623;28;20452;-82
2023/08/16 10:07:11;;;;;;;1.63;1.53;;;33.90;52.60;;;;;;4979543;28;20442;-86
2023/08/16 10:09:41;;;;;;;1.97;1.87;;;33.90;52.80;;;;;;4970864;28;20418;-84
2023/08/16 10:12:10;;;;;;;1.93;1.83;;;34.00;53.00;;;;;;4978415;28;20504;-84
2023/08/16 10:14:40;;;;;;;1.97;1.87;;;33.70;54.30;;;;;;4968331;28;20670;-84
2023/08/16 10:17:09;;;;;;;2.23;2.13;;;33.70;53.80;;;;;;4971802;28;20477;-86
2023/08/16 10:19:42;;;;;;;1.93;1.83;;;33.70;52.80;;;;;;4969022;28;20505;-85
2023/08/16 10:22:29;;;;;;;4.43;2.20;;;33.50;52.30;;;;;;4968801;28;20529;-84
2023/08/16 10:25:06;;;;;;;3.77;3.53;;;33.10;53.70;;;;;;4974144;28;20452;-84
2023/08/16 10:27:36;;;;;;;1.63;1.53;;;33.10;54.00;;;;;;4972149;28;20554;-87
2023/08/16 10:30:09;;;;;;;1.83;1.73;;;33.10;53.50;;;;;;4982442;28;20807;-86
2023/08/16 10:32:42;;;;;;;2.30;2.20;;;33.30;53.30;;;;;;4973666;28;20808;-82
2023/08/16 10:35:11;;;;;;;3.27;3.07;;;33.30;53.60;;;;;;4969332;28;20433;-84
2023/08/16 10:37:38;;;;;;;2.83;2.63;;;33.50;53.70;;;;;;4976194;28;20509;-86
2023/08/16 10:40:20;;;;;;;2.40;2.30;;;33.60;52.70;;;;;;4982633;28;20469;-77
2023/08/16 10:42:58;;;;;;;2.30;2.20;;;33.50;53.60;;;;;;4987240;28;20437;-88
2023/08/16 10:45:33;;;;;;;2.83;2.63;;;33.30;54.00;;;;;;4962792;28;20437;-83
2023/08/16 10:48:20;;;;;;;1.80;1.70;;;33.50;53.90;;;;;;4966995;28;20458;-86
2023/08/16 10:50:56;;;;;;;1.30;1.30;;;33.30;53.70;;;;;;4972984;28;20890;-82
2023/08/16 10:53:28;;;;;;;1.70;1.60;;;33.30;54.10;;;;;;4976548;28;20452;-85
2023/08/16 10:55:55;;;;;;;2.33;2.23;;;32.90;54.00;;;;;;4979614;28;20839;-87
2023/08/16 10:58:24;;;;;;;2.00;1.90;;;32.50;55.00;;;;;;4980704;28;20440;-86
2023/08/16 11:00:58;;;;;;;3.70;2.67;;;32.50;55.20;;;;;;4982966;28;20484;-84
2023/08/16 11:03:33;;;;;;;2.40;2.30;;;32.70;55.50;;;;;;4972067;28;20440;-83
2023/08/16 11:06:07;;;;;;;2.73;2.63;;;32.70;54.90;;;;;;4973977;28;20449;-82
2023/08/16 11:08:35;;;;;;;2.03;1.93;;;32.70;54.70;;;;;;4986800;28;20492;-82
2023/08/16 11:11:02;;;;;;;2.60;2.50;;;32.90;54.10;;;;;;4976881;28;20491;-83
2023/08/16 11:13:29;;;;;;;1.30;1.30;;;32.80;52.90;;;;;;4965252;28;20423;-83
2023/08/16 11:15:56;;;;;;;2.00;1.90;;;32.60;53.70;;;;;;4975275;28;20525;-81
2023/08/16 11:18:28;;;;;;;2.83;2.63;;;32.60;53.10;;;;;;5064996;23;20443;-82
2023/08/16 11:21:03;;;;;;;1.73;1.63;;;32.40;55.30;;;;;;4982249;28;20455;-85
2023/08/16 11:23:32;;;;;;;3.47;3.17;;;32.60;55.20;;;;;;5187776;23;20516;-81
2023/08/16 11:26:01;;;;;;;3.13;3.03;;;32.90;54.00;;;;;;4956859;28;20441;-84
2023/08/16 11:28:30;;;;;;;2.20;2.10;;;32.90;54.10;;;;;;4962128;29;20560;-83
2023/08/16 11:30:58;;;;;;;4.53;4.23;;;32.80;54.20;;;;;;4954948;28;20678;-85
2023/08/16 11:33:43;;;;;;;2.30;2.20;;;32.80;53.50;;;;;;4952427;29;20598;-84
2023/08/16 11:36:13;;;;;;;1.57;1.50;;;31.90;54.70;;;;;;4961047;28;20473;-85
2023/08/16 11:38:40;;;;;;;2.40;2.30;;;32.00;55.70;;;;;;4956327;29;20601;-86
2023/08/16 11:41:07;;;;;;;2.60;2.20;;;32.20;55.80;;;;;;4963757;28;20477;-82
2023/08/16 11:43:35;;;;;;;2.57;2.47;;;32.60;54.50;;;;;;4972107;28;20428;-85
2023/08/16 11:46:04;;;;;;;2.40;2.20;;;32.80;53.90;;;;;;4956097;28;20458;-85
2023/08/16 11:48:34;;;;;;;3.17;2.97;;;32.80;54.20;;;;;;4954806;29;20502;-85
2023/08/16 11:51:02;;;;;;;3.00;2.80;;;33.00;54.30;;;;;;4952618;29;20829;-85
2023/08/16 11:53:33;;;;;;;2.10;2.00;;;33.40;52.90;;;;;;4958378;28;20533;-85
2023/08/16 11:56:12;;;;;;;2.70;2.60;;;33.30;52.90;;;;;;4946655;29;20507;-88
2023/08/16 11:58:47;;;;;;;1.80;1.70;;;33.20;52.80;;;;;;4959442;29;20445;-83
2023/08/16 12:01:15;;;;;;;1.80;1.70;;;33.00;53.50;;;;;;4946333;29;20634;-86
2023/08/16 12:03:44;;;;;;;2.33;2.23;;;32.90;53.70;;;;;;4962236;29;20422;-86
2023/08/16 12:06:12;;;;;;;2.80;2.60;;;33.00;53.50;;;;;;4969171;28;20449;-81
2023/08/16 12:08:53;;;;;;;1.83;1.73;;;33.10;53.60;;;;;;5071932;23;20508;-80
2023/08/16 12:11:35;;;;;;;2.13;2.03;;;33.30;52.90;;;;;;5013937;23;20495;-91
2023/08/16 12:14:03;;;;;;;1.90;1.80;;;33.50;53.30;;;;;;4966859;28;20665;-83
2023/08/16 12:16:33;;;;;;;1.97;1.87;;;33.50;51.80;;;;;;4964469;28;21464;-84
2023/08/16 12:19:00;;;;;;;2.60;2.50;;;33.60;52.00;;;;;;4961445;28;20904;-82
2023/08/16 12:21:27;;;;;;;1.70;1.60;;;33.70;49.60;;;;;;4962836;28;20461;-84
2023/08/16 12:23:53;;;;;;;1.83;1.73;;;33.70;51.50;;;;;;5108324;23;20496;-81
2023/08/16 12:26:21;;;;;;;2.47;2.37;;;33.50;51.40;;;;;;4967050;28;20461;-83
2023/08/16 12:28:48;;;;;;;13.13;3.57;;;33.60;52.20;;;;;;4962698;28;20450;-85
2023/08/16 12:31:15;;;;;;;2.13;2.03;;;33.80;50.60;;;;;;4962486;28;20531;-82
2023/08/16 12:33:43;;;;;;;2.37;2.17;;;33.90;50.70;;;;;;4967439;28;20445;-84
2023/08/16 12:36:12;;;;;;;2.10;2.00;;;33.90;51.10;;;;;;5048540;23;20489;-79
2023/08/16 12:38:40;;;;;;;2.27;2.17;;;33.90;50.60;;;;;;5030899;23;20611;-84
2023/08/16 12:41:07;;;;;;;2.50;2.40;;;33.80;51.50;;;;;;4982659;28;20459;-83
2023/08/16 12:43:34;;;;;;;2.17;2.03;;;33.70;51.40;;;;;;4982048;28;20472;-85
2023/08/16 12:46:07;;;;;;;1.40;1.30;;;33.70;52.30;;;;;;4987038;28;20453;-83
2023/08/16 12:48:38;;;;;;;4.27;3.97;;;33.80;51.60;;;;;;4984221;28;20453;-84
2023/08/16 12:51:05;;;;;;;1.97;1.87;;;33.70;50.70;;;;;;4984005;28;20471;-84
2023/08/16 12:53:43;;;;;;;2.00;1.90;;;33.50;51.30;;;;;;4984405;28;20451;-84
2023/08/16 12:56:10;;;;;;;2.23;2.13;;;33.30;51.70;;;;;;4984355;28;20449;-86
2023/08/16 12:58:36;;;;;;;2.17;2.07;;;33.30;51.50;;;;;;4984911;28;20480;-83
2023/08/16 13:01:05;;;;;;;2.77;2.57;;;33.30;50.50;;;;;;4983735;28;20608;-84